Nowata, Oklahoma
Current Conditions -  °F | °C
As of 1:04 PM on Sunday 23 Nov 2014 (Local Time) from KBVO Reporting Station
Overcast Overcast  
Wind Chill: 62°   Ceiling: 4500
Heat Index: 62°   Visibility: 10mi
Dew Point: 54°   Wind: 0mph
Humidity: 75%   Direction: NA
Pressure: 29.35"   Gusts: NA
Location:  36.7°N, 95.64°W
Report Text: KBVO 231904Z AUTO 00000KT 10SM FEW019 SCT036 OVC045 17/12 A2935 RMK AO2 T01670122
Loading
Personal Weather Stations






























Interactive Weather Map New forecast layout! Learn more

10-Day Weather Forecast

Advertisements
Track Severe Weather on mobile